createdAt,value
2022-08-18T00:00:58.909Z,1008.04
2022-08-18T00:01:59.023Z,1008.06
2022-08-18T00:03:00.948Z,1008.09
2022-08-18T00:03:59.643Z,1008.13
2022-08-18T00:04:58.892Z,1008.14
2022-08-18T00:05:58.827Z,1008.17
2022-08-18T00:06:58.817Z,1008.17
2022-08-18T00:07:58.832Z,1008.18
2022-08-18T00:08:58.843Z,1008.17
2022-08-18T00:09:58.798Z,1008.17
2022-08-18T00:10:58.788Z,1008.18
2022-08-18T00:11:58.758Z,1008.14
2022-08-18T00:13:01.334Z,1008.17
2022-08-18T00:13:58.762Z,1008.18
2022-08-18T00:14:58.720Z,1008.20
2022-08-18T00:15:58.708Z,1008.18
2022-08-18T00:16:58.711Z,1008.24
2022-08-18T00:17:58.688Z,1008.26
2022-08-18T00:18:58.692Z,1008.29
2022-08-18T00:19:58.674Z,1008.27
2022-08-18T00:20:58.668Z,1008.29
2022-08-18T00:21:58.622Z,1008.24
2022-08-18T00:22:58.632Z,1008.38
2022-08-18T00:23:58.607Z,1008.34
2022-08-18T00:24:58.637Z,1008.37
2022-08-18T00:25:58.706Z,1008.41
2022-08-18T00:26:58.563Z,1008.36
2022-08-18T00:27:58.567Z,1008.33
2022-08-18T00:28:58.550Z,1008.34
2022-08-18T00:29:58.526Z,1008.39
2022-08-18T00:30:58.526Z,1008.40
2022-08-18T00:31:58.616Z,1008.43
2022-08-18T00:32:58.487Z,1008.46
2022-08-18T00:33:58.501Z,1008.41
2022-08-18T00:34:58.491Z,1008.42
2022-08-18T00:35:58.452Z,1008.43
2022-08-18T00:36:58.437Z,1008.44
2022-08-18T00:37:58.532Z,1008.44
2022-08-18T00:38:58.409Z,1008.40
2022-08-18T00:39:58.436Z,1008.51
2022-08-18T00:40:58.387Z,1008.52
2022-08-18T00:41:58.412Z,1008.54
2022-08-18T00:42:58.361Z,1008.57
2022-08-18T00:43:58.481Z,1008.58
2022-08-18T00:44:58.383Z,1008.55
2022-08-18T00:45:58.321Z,1008.54
2022-08-18T00:46:58.311Z,1008.53
2022-08-18T00:47:58.607Z,1008.54
2022-08-18T00:48:58.306Z,1008.53
2022-08-18T00:49:58.283Z,1008.55
2022-08-18T00:50:58.264Z,1008.57
2022-08-18T00:51:58.251Z,1008.56
2022-08-18T00:52:58.247Z,1008.53
2022-08-18T00:53:58.215Z,1008.55
2022-08-18T00:54:58.226Z,1008.53
2022-08-18T00:55:58.226Z,1008.48
2022-08-18T00:56:58.179Z,1008.43
2022-08-18T00:57:58.166Z,1008.47
2022-08-18T00:58:58.186Z,1008.45
2022-08-18T00:59:58.136Z,1008.45
2022-08-18T01:00:58.167Z,1008.45
2022-08-18T01:01:58.158Z,1008.48
2022-08-18T01:02:58.106Z,1008.49
2022-08-18T01:03:58.090Z,1008.55
2022-08-18T01:04:58.078Z,1008.52
2022-08-18T01:05:58.076Z,1008.50
2022-08-18T01:06:58.144Z,1008.54
2022-08-18T01:07:58.085Z,1008.53
2022-08-18T01:08:58.037Z,1008.50
2022-08-18T01:09:58.022Z,1008.52
2022-08-18T01:10:58.002Z,1008.54
2022-08-18T01:11:58.032Z,1008.51
2022-08-18T01:12:57.989Z,1008.48
2022-08-18T01:13:58.072Z,1008.47
2022-08-18T01:14:57.954Z,1008.45
2022-08-18T01:15:57.945Z,1008.42
2022-08-18T01:16:58.110Z,1008.44
2022-08-18T01:17:57.922Z,1008.43
2022-08-18T01:18:57.902Z,1008.44
2022-08-18T01:19:58.009Z,1008.43
2022-08-18T01:20:57.878Z,1008.37
2022-08-18T01:21:57.873Z,1008.34
2022-08-18T01:22:57.870Z,1008.38
2022-08-18T01:23:57.838Z,1008.41
2022-08-18T01:24:57.825Z,1008.29
2022-08-18T01:25:57.961Z,1008.30
2022-08-18T01:26:57.808Z,1008.30
2022-08-18T01:28:00.868Z,1008.25
2022-08-18T01:28:57.837Z,1008.23
2022-08-18T01:29:57.779Z,1008.19
2022-08-18T01:30:57.741Z,1008.20
2022-08-18T01:31:57.839Z,1008.17
2022-08-18T01:32:57.723Z,1008.18
2022-08-18T01:33:57.719Z,1008.16
2022-08-18T01:34:57.707Z,1008.14
2022-08-18T01:35:57.683Z,1008.15
2022-08-18T01:36:57.674Z,1008.12
2022-08-18T01:37:57.691Z,1008.14
2022-08-18T01:38:57.645Z,1008.19
2022-08-18T01:41:17.511Z,1008.14
2022-08-18T01:41:22.912Z,1008.14
2022-08-18T01:41:58.660Z,1008.12
2022-08-18T01:42:57.605Z,1008.17
2022-08-18T01:43:57.599Z,1008.17
2022-08-18T01:44:57.569Z,1008.21
2022-08-18T01:45:57.552Z,1008.21
2022-08-18T01:46:57.546Z,1008.17
2022-08-18T01:47:57.530Z,1008.19
2022-08-18T01:48:57.528Z,1008.17
2022-08-18T01:49:57.552Z,1008.19
2022-08-18T01:50:57.504Z,1008.14
2022-08-18T01:51:57.487Z,1008.09
2022-08-18T01:52:57.481Z,1008.08
2022-08-18T01:53:57.448Z,1008.09
2022-08-18T01:54:57.444Z,1008.09
2022-08-18T01:55:57.449Z,1008.05
2022-08-18T01:56:57.409Z,1008.06
2022-08-18T01:57:57.399Z,1008.04
2022-08-18T01:58:57.390Z,1008.03
2022-08-18T01:59:57.370Z,1008.04
2022-08-18T02:00:57.361Z,1008.06
2022-08-18T02:01:57.432Z,1008.06
2022-08-18T02:03:01.897Z,1008.06
2022-08-18T02:04:23.451Z,1008.04
2022-08-18T02:04:58.316Z,1008.01
2022-08-18T02:05:57.302Z,1008.02
2022-08-18T02:06:57.295Z,1007.98
2022-08-18T02:07:57.407Z,1008.05
2022-08-18T02:08:57.290Z,1008.06
2022-08-18T02:09:57.254Z,1008.08
2022-08-18T02:10:57.244Z,1008.04
2022-08-18T02:11:57.216Z,1008.04
2022-08-18T02:12:57.227Z,1008.03
2022-08-18T02:13:57.365Z,1008.04
2022-08-18T02:14:57.185Z,1008.03
2022-08-18T02:15:57.205Z,1008.03
2022-08-18T02:17:02.258Z,1008.03
2022-08-18T02:17:58.152Z,1008.00
2022-08-18T02:18:57.138Z,1008.03
2022-08-18T02:19:57.171Z,1008.00
2022-08-18T02:20:57.123Z,1008.02
2022-08-18T02:21:57.098Z,1008.07
2022-08-18T02:22:57.086Z,1008.02
2022-08-18T02:23:57.080Z,1008.04
2022-08-18T02:24:57.078Z,1008.04
2022-08-18T02:25:57.169Z,1008.03
2022-08-18T02:26:57.047Z,1008.05
2022-08-18T02:27:57.022Z,1008.07
2022-08-18T02:28:57.014Z,1008.09
2022-08-18T02:29:57.016Z,1008.07
2022-08-18T02:30:56.995Z,1008.04
2022-08-18T02:31:57.060Z,1008.06
2022-08-18T02:32:56.958Z,1008.05
2022-08-18T02:33:56.945Z,1008.07
2022-08-18T02:34:56.938Z,1008.09
2022-08-18T02:35:56.932Z,1008.11
2022-08-18T02:36:56.917Z,1008.10
2022-08-18T02:37:56.953Z,1008.16
2022-08-18T02:38:59.800Z,1008.13
2022-08-18T02:39:56.944Z,1008.20
2022-08-18T02:40:56.867Z,1008.17
2022-08-18T02:41:56.840Z,1008.14
2022-08-18T02:42:56.867Z,1008.18
2022-08-18T02:43:56.860Z,1008.22
2022-08-18T02:44:56.854Z,1008.24
2022-08-18T02:45:56.801Z,1008.18
2022-08-18T02:46:56.782Z,1008.22
2022-08-18T02:47:56.777Z,1008.17
2022-08-18T02:48:56.760Z,1008.17
2022-08-18T02:49:56.800Z,1008.17
2022-08-18T02:50:56.733Z,1008.16
2022-08-18T02:51:56.725Z,1008.19
2022-08-18T02:52:56.758Z,1008.18
2022-08-18T02:53:56.694Z,1008.15
2022-08-18T02:54:56.683Z,1008.20
2022-08-18T02:55:56.705Z,1008.23
2022-08-18T02:56:56.655Z,1008.20
2022-08-18T02:57:56.638Z,1008.23
2022-08-18T02:58:56.625Z,1008.21
2022-08-18T02:59:56.617Z,1008.20
2022-08-18T03:00:56.615Z,1008.18
2022-08-18T03:01:56.723Z,1008.22
2022-08-18T03:02:56.578Z,1008.23
2022-08-18T03:03:56.568Z,1008.22
2022-08-18T03:04:56.584Z,1008.26
2022-08-18T03:05:56.571Z,1008.37
2022-08-18T03:06:56.529Z,1008.32
2022-08-18T03:07:56.550Z,1008.34
2022-08-18T03:08:56.509Z,1008.36
2022-08-18T03:09:56.509Z,1008.33
2022-08-18T03:10:56.494Z,1008.34
2022-08-18T03:11:56.487Z,1008.35
2022-08-18T03:12:56.452Z,1008.36
2022-08-18T03:13:56.478Z,1008.37
2022-08-18T03:14:56.420Z,1008.37
2022-08-18T03:15:57.061Z,1008.35
2022-08-18T03:16:56.420Z,1008.32
2022-08-18T03:17:56.394Z,1008.34
2022-08-18T03:18:56.394Z,1008.31
2022-08-18T03:19:56.413Z,1008.34
2022-08-18T03:20:56.355Z,1008.39
2022-08-18T03:21:58.199Z,1008.36
2022-08-18T03:22:56.326Z,1008.42
2022-08-18T03:24:00.542Z,1008.39
2022-08-18T03:24:57.357Z,1008.32
2022-08-18T03:25:56.289Z,1008.32
2022-08-18T03:26:56.291Z,1008.24
2022-08-18T03:27:56.256Z,1008.23
2022-08-18T03:28:56.258Z,1008.24
2022-08-18T03:29:56.235Z,1008.20
2022-08-18T03:30:56.279Z,1008.27
2022-08-18T03:31:56.258Z,1008.25
2022-08-18T03:32:56.198Z,1008.24
2022-08-18T03:33:59.113Z,1008.26
2022-08-18T03:34:56.204Z,1008.24
2022-08-18T03:35:56.169Z,1008.22
2022-08-18T03:36:56.177Z,1008.19
2022-08-18T03:37:56.141Z,1008.16
2022-08-18T03:38:56.120Z,1008.15
2022-08-18T03:39:56.203Z,1008.15
2022-08-18T03:40:56.105Z,1008.17
2022-08-18T03:42:00.199Z,1008.19
2022-08-18T03:42:56.103Z,1008.20
2022-08-18T03:43:56.064Z,1008.18
2022-08-18T03:44:56.047Z,1008.18
2022-08-18T03:45:56.074Z,1008.19
2022-08-18T03:46:56.025Z,1008.19
2022-08-18T03:47:56.010Z,1008.20
2022-08-18T03:48:56.022Z,1008.19
2022-08-18T03:49:55.984Z,1008.26
2022-08-18T03:50:55.974Z,1008.22
2022-08-18T03:51:55.975Z,1008.26
2022-08-18T03:52:55.945Z,1008.25
2022-08-18T03:53:55.938Z,1008.27
2022-08-18T03:54:55.937Z,1008.27
2022-08-18T03:55:55.915Z,1008.29
2022-08-18T03:56:55.904Z,1008.25
2022-08-18T03:57:55.897Z,1008.26
2022-08-18T03:58:55.867Z,1008.24
2022-08-18T03:59:55.869Z,1008.25
2022-08-18T04:00:56.017Z,1008.26
2022-08-18T04:01:56.001Z,1008.27
2022-08-18T04:02:55.819Z,1008.35
2022-08-18T04:03:55.821Z,1008.38
2022-08-18T04:04:55.789Z,1008.35
2022-08-18T04:05:55.790Z,1008.40
2022-08-18T04:06:55.790Z,1008.43
2022-08-18T04:07:55.845Z,1008.41
2022-08-18T04:08:55.746Z,1008.39
2022-08-18T04:09:55.732Z,1008.41
2022-08-18T04:10:55.739Z,1008.39
2022-08-18T04:11:55.712Z,1008.41
2022-08-18T04:12:55.794Z,1008.37
2022-08-18T04:13:55.691Z,1008.35
2022-08-18T04:14:55.665Z,1008.34
2022-08-18T04:15:55.664Z,1008.36
2022-08-18T04:16:55.634Z,1008.35
2022-08-18T04:17:56.193Z,1008.36
2022-08-18T04:18:56.637Z,1008.31
2022-08-18T04:19:55.606Z,1008.34
2022-08-18T04:20:59.360Z,1008.38
2022-08-18T04:21:55.584Z,1008.38
2022-08-18T04:22:55.570Z,1008.34
2022-08-18T04:23:55.559Z,1008.33
2022-08-18T04:24:55.700Z,1008.39
2022-08-18T04:25:55.527Z,1008.33
2022-08-18T04:26:55.519Z,1008.33
2022-08-18T04:27:55.507Z,1008.32
2022-08-18T04:28:55.489Z,1008.30
2022-08-18T04:29:55.485Z,1008.35
2022-08-18T04:30:55.490Z,1008.31
2022-08-18T04:31:55.457Z,1008.26
2022-08-18T04:32:55.441Z,1008.29
2022-08-18T04:33:55.440Z,1008.32
2022-08-18T04:34:55.420Z,1008.39
2022-08-18T04:35:55.416Z,1008.40
2022-08-18T04:36:55.405Z,1008.43
2022-08-18T04:37:55.615Z,1008.41
2022-08-18T04:38:56.589Z,1008.41
2022-08-18T04:39:55.438Z,1008.46
2022-08-18T04:40:55.345Z,1008.44
2022-08-18T04:41:55.324Z,1008.42
2022-08-18T04:42:55.414Z,1008.42
2022-08-18T04:43:55.313Z,1008.48
2022-08-18T04:44:55.298Z,1008.44
2022-08-18T04:45:55.279Z,1008.47
2022-08-18T04:46:55.261Z,1008.47
2022-08-18T04:47:55.247Z,1008.49
2022-08-18T04:48:55.348Z,1008.44
2022-08-18T04:49:55.232Z,1008.46
2022-08-18T04:50:55.207Z,1008.47
2022-08-18T04:52:36.606Z,1008.47
2022-08-18T04:52:56.201Z,1008.46
2022-08-18T04:53:55.178Z,1008.44
2022-08-18T04:54:55.189Z,1008.42
2022-08-18T04:55:55.153Z,1008.42
2022-08-18T04:56:55.139Z,1008.41
2022-08-18T04:57:55.123Z,1008.42
2022-08-18T04:58:55.120Z,1008.40
2022-08-18T04:59:55.114Z,1008.42
2022-08-18T05:00:55.176Z,1008.45
2022-08-18T05:01:55.094Z,1008.48
2022-08-18T05:02:55.060Z,1008.49
2022-08-18T05:03:55.055Z,1008.43
2022-08-18T05:04:55.063Z,1008.51
2022-08-18T05:05:55.025Z,1008.60
2022-08-18T05:06:55.044Z,1008.59
2022-08-18T05:07:55.020Z,1008.64
2022-08-18T05:08:54.986Z,1008.65
2022-08-18T05:09:54.987Z,1008.66
2022-08-18T05:10:54.957Z,1008.69
2022-08-18T05:11:54.949Z,1008.66
2022-08-18T05:12:55.057Z,1008.67
2022-08-18T05:13:54.929Z,1008.68
2022-08-18T05:14:54.909Z,1008.69
2022-08-18T05:16:10.185Z,1008.62
2022-08-18T05:16:55.899Z,1008.64
2022-08-18T05:17:55.002Z,1008.62
2022-08-18T05:18:54.888Z,1008.63
2022-08-18T05:19:54.849Z,1008.62
2022-08-18T05:20:54.840Z,1008.63
2022-08-18T05:21:59.520Z,1008.63
2022-08-18T05:22:55.811Z,1008.62
2022-08-18T05:23:54.798Z,1008.62
2022-08-18T05:24:54.795Z,1008.60
2022-08-18T05:25:54.768Z,1008.65
2022-08-18T05:26:54.754Z,1008.65
2022-08-18T05:27:54.747Z,1008.62
2022-08-18T05:29:04.106Z,1008.60
2022-08-18T05:29:55.755Z,1008.59
2022-08-18T05:30:54.711Z,1008.59
2022-08-18T05:31:54.704Z,1008.64
2022-08-18T05:32:54.684Z,1008.58
2022-08-18T05:33:54.665Z,1008.58
2022-08-18T05:34:54.673Z,1008.60
2022-08-18T05:35:54.685Z,1008.57
2022-08-18T05:36:54.641Z,1008.57
2022-08-18T05:37:54.626Z,1008.60
2022-08-18T05:38:54.608Z,1008.56
2022-08-18T05:39:54.737Z,1008.59
2022-08-18T05:40:54.577Z,1008.61
2022-08-18T05:41:54.592Z,1008.60
2022-08-18T05:42:54.565Z,1008.59
2022-08-18T05:43:54.546Z,1008.65
2022-08-18T05:44:54.539Z,1008.66
2022-08-18T05:45:54.530Z,1008.64
2022-08-18T05:46:54.512Z,1008.66
2022-08-18T05:47:54.521Z,1008.64
2022-08-18T05:48:54.474Z,1008.66
2022-08-18T05:49:54.467Z,1008.63
2022-08-18T05:50:54.462Z,1008.68
2022-08-18T05:51:54.459Z,1008.68
2022-08-18T05:52:54.433Z,1008.66
2022-08-18T05:53:54.450Z,1008.72
2022-08-18T05:54:54.405Z,1008.75
2022-08-18T05:55:54.395Z,1008.72
2022-08-18T05:56:54.402Z,1008.73
2022-08-18T05:57:54.376Z,1008.77
2022-08-18T05:58:54.356Z,1008.77
2022-08-18T05:59:54.364Z,1008.74
2022-08-18T06:00:59.631Z,1008.77
2022-08-18T06:01:55.321Z,1008.76
2022-08-18T06:02:55.180Z,1008.73
2022-08-18T06:03:54.323Z,1008.70
2022-08-18T06:04:54.279Z,1008.68
2022-08-18T06:05:54.300Z,1008.69
2022-08-18T06:06:54.259Z,1008.68
2022-08-18T06:07:54.238Z,1008.69
2022-08-18T06:08:54.229Z,1008.72
2022-08-18T06:09:54.236Z,1008.76
2022-08-18T06:10:55.159Z,1008.74
2022-08-18T06:11:54.251Z,1008.77
2022-08-18T06:12:54.190Z,1008.77
2022-08-18T06:13:59.201Z,1008.83
2022-08-18T06:14:55.196Z,1008.80
2022-08-18T06:15:54.159Z,1008.79
2022-08-18T06:16:54.621Z,1008.78
2022-08-18T06:17:54.933Z,1008.76
2022-08-18T06:18:58.115Z,1008.76
2022-08-18T06:19:55.272Z,1008.73
2022-08-18T06:20:58.865Z,1008.71
2022-08-18T06:21:54.066Z,1008.75
2022-08-18T06:22:55.362Z,1008.81
2022-08-18T06:23:54.175Z,1008.82
2022-08-18T06:24:54.038Z,1008.80
2022-08-18T06:25:54.108Z,1008.78
2022-08-18T06:26:54.138Z,1008.77
2022-08-18T06:27:54.150Z,1008.80
2022-08-18T06:28:53.982Z,1008.83
2022-08-18T06:29:54.977Z,1008.84
2022-08-18T06:30:53.979Z,1008.82
2022-08-18T06:31:53.938Z,1008.87
2022-08-18T06:32:53.941Z,1008.92
2022-08-18T06:33:53.947Z,1008.93
2022-08-18T06:34:54.680Z,1008.94
2022-08-18T06:35:53.955Z,1009.00
2022-08-18T06:36:53.923Z,1008.97
2022-08-18T06:37:53.939Z,1009.02
2022-08-18T06:38:53.876Z,1008.99
2022-08-18T06:39:53.886Z,1008.97
2022-08-18T06:40:53.823Z,1009.02
2022-08-18T06:41:53.875Z,1009.04
2022-08-18T06:42:53.850Z,1009.03
2022-08-18T06:43:54.584Z,1009.05
2022-08-18T06:44:53.799Z,1008.99
2022-08-18T06:45:53.775Z,1009.00
2022-08-18T06:46:54.071Z,1009.00
2022-08-18T06:47:54.028Z,1009.08
2022-08-18T06:48:53.727Z,1009.08
2022-08-18T06:49:53.724Z,1009.09
2022-08-18T06:50:53.704Z,1009.16
2022-08-18T06:51:53.695Z,1009.14
2022-08-18T06:52:53.694Z,1009.18
2022-08-18T06:53:53.688Z,1009.17
2022-08-18T06:54:53.651Z,1009.15
2022-08-18T06:55:53.654Z,1009.16
2022-08-18T06:56:53.637Z,1009.12
2022-08-18T06:57:53.787Z,1009.12
2022-08-18T06:58:53.606Z,1009.14
2022-08-18T06:59:53.627Z,1009.18
2022-08-18T07:00:54.985Z,1009.16
2022-08-18T07:01:53.579Z,1009.16
2022-08-18T07:02:53.566Z,1009.23
2022-08-18T07:03:53.544Z,1009.19
2022-08-18T07:04:53.536Z,1009.25
2022-08-18T07:05:53.572Z,1009.30
2022-08-18T07:06:53.503Z,1009.22
2022-08-18T07:07:53.747Z,1009.28
2022-08-18T07:08:53.474Z,1009.28
2022-08-18T07:09:53.487Z,1009.27
2022-08-18T07:10:53.466Z,1009.26
2022-08-18T07:11:53.486Z,1009.27
2022-08-18T07:12:53.427Z,1009.34
2022-08-18T07:14:09.527Z,1009.35
2022-08-18T07:14:54.389Z,1009.35
2022-08-18T07:15:53.386Z,1009.36
2022-08-18T07:16:58.748Z,1009.39
2022-08-18T07:17:54.794Z,1009.36
2022-08-18T07:18:53.355Z,1009.31
2022-08-18T07:19:53.353Z,1009.25
2022-08-18T07:20:53.318Z,1009.31
2022-08-18T07:21:53.323Z,1009.38
2022-08-18T07:22:53.315Z,1009.29
2022-08-18T07:24:14.152Z,1009.29
2022-08-18T07:24:54.275Z,1009.30
2022-08-18T07:25:53.274Z,1009.34
2022-08-18T07:26:53.271Z,1009.33
2022-08-18T07:27:53.572Z,1009.34
2022-08-18T07:28:53.258Z,1009.41
2022-08-18T07:29:53.233Z,1009.42
2022-08-18T07:31:15.597Z,1009.40
2022-08-18T07:31:54.188Z,1009.41
2022-08-18T07:32:53.178Z,1009.43
2022-08-18T07:33:53.206Z,1009.46
2022-08-18T07:34:53.518Z,1009.48
2022-08-18T07:35:53.310Z,1009.51
2022-08-18T07:36:53.137Z,1009.48
2022-08-18T07:37:53.213Z,1009.47
2022-08-18T07:38:53.108Z,1009.50
2022-08-18T07:39:53.127Z,1009.50
2022-08-18T07:40:53.090Z,1009.48
2022-08-18T07:41:53.072Z,1009.52
2022-08-18T07:43:00.658Z,1009.38
2022-08-18T07:43:54.035Z,1009.41
2022-08-18T07:44:53.027Z,1009.37
2022-08-18T07:45:53.105Z,1009.44
2022-08-18T07:46:53.008Z,1009.41
2022-08-18T07:47:53.165Z,1009.43
2022-08-18T07:48:52.981Z,1009.42
2022-08-18T07:50:16.592Z,1009.42
2022-08-18T07:50:58.854Z,1009.41
2022-08-18T07:51:53.933Z,1009.42
2022-08-18T07:52:52.913Z,1009.42
2022-08-18T07:53:55.649Z,1009.46
2022-08-18T07:54:52.897Z,1009.49
2022-08-18T07:55:52.973Z,1009.50
2022-08-18T07:56:52.887Z,1009.50
2022-08-18T07:57:54.473Z,1009.50
2022-08-18T07:58:52.839Z,1009.54
2022-08-18T07:59:52.847Z,1009.51
2022-08-18T08:00:59.428Z,1009.50
2022-08-18T08:01:53.851Z,1009.46
2022-08-18T08:02:55.182Z,1009.41
2022-08-18T08:03:52.784Z,1009.39
2022-08-18T08:04:52.773Z,1009.39
2022-08-18T08:05:52.939Z,1009.38
2022-08-18T08:07:20.770Z,1009.43
2022-08-18T08:07:53.952Z,1009.40
2022-08-18T08:08:52.721Z,1009.38
2022-08-18T08:09:52.730Z,1009.39
2022-08-18T08:10:52.692Z,1009.38
2022-08-18T08:11:52.711Z,1009.36
2022-08-18T08:13:01.711Z,1009.34
2022-08-18T08:13:56.403Z,1009.32
2022-08-18T08:14:52.633Z,1009.34
2022-08-18T08:15:52.686Z,1009.36
2022-08-18T08:16:52.635Z,1009.37
2022-08-18T08:17:52.874Z,1009.35
2022-08-18T08:18:52.606Z,1009.30
2022-08-18T08:20:01.254Z,1009.33
2022-08-18T08:20:53.576Z,1009.34
2022-08-18T08:21:52.694Z,1009.31
2022-08-18T08:22:52.578Z,1009.34
2022-08-18T08:23:52.645Z,1009.32
2022-08-18T08:24:52.536Z,1009.37
2022-08-18T08:25:52.624Z,1009.39
2022-08-18T08:26:52.517Z,1009.42
2022-08-18T08:27:52.658Z,1009.43
2022-08-18T08:28:55.723Z,1009.45
2022-08-18T08:29:52.496Z,1009.45
2022-08-18T08:30:52.459Z,1009.43
2022-08-18T08:31:52.431Z,1009.39
2022-08-18T08:32:52.457Z,1009.41
2022-08-18T08:33:52.401Z,1009.41
2022-08-18T08:34:52.409Z,1009.41
2022-08-18T08:35:52.538Z,1009.43
2022-08-18T08:36:52.365Z,1009.38
2022-08-18T08:37:52.604Z,1009.45
2022-08-18T08:38:52.354Z,1009.46
2022-08-18T08:39:52.351Z,1009.48
2022-08-18T08:40:52.393Z,1009.52
2022-08-18T08:41:52.353Z,1009.54
2022-08-18T08:42:52.315Z,1009.55
2022-08-18T08:43:52.267Z,1009.51
2022-08-18T08:45:00.160Z,1009.54
2022-08-18T08:45:53.258Z,1009.49
2022-08-18T08:46:52.258Z,1009.50
2022-08-18T08:47:52.372Z,1009.54
2022-08-18T08:48:52.217Z,1009.54
2022-08-18T08:49:59.074Z,1009.55
2022-08-18T08:50:53.208Z,1009.56
2022-08-18T08:51:52.170Z,1009.59
2022-08-18T08:52:56.716Z,1009.60
2022-08-18T08:53:53.182Z,1009.64
2022-08-18T08:54:52.140Z,1009.64
2022-08-18T08:55:52.132Z,1009.68
2022-08-18T08:56:52.123Z,1009.75
2022-08-18T08:57:52.308Z,1009.75
2022-08-18T08:58:52.090Z,1009.73
2022-08-18T08:59:52.172Z,1009.71
2022-08-18T09:00:52.082Z,1009.75
2022-08-18T09:01:52.093Z,1009.80
2022-08-18T09:02:52.042Z,1009.79
2022-08-18T09:03:52.024Z,1009.76
2022-08-18T09:05:07.700Z,1009.75
2022-08-18T09:05:56.793Z,1009.81
2022-08-18T09:06:51.994Z,1009.74
2022-08-18T09:07:51.979Z,1009.72
2022-08-18T09:08:51.988Z,1009.72
2022-08-18T09:09:51.950Z,1009.67
2022-08-18T09:10:51.947Z,1009.68
2022-08-18T09:11:52.010Z,1009.71
2022-08-18T09:12:52.058Z,1009.70
2022-08-18T09:13:51.901Z,1009.67
2022-08-18T09:14:51.899Z,1009.68
2022-08-18T09:15:52.823Z,1009.67
2022-08-18T09:16:51.860Z,1009.67
2022-08-18T09:17:51.880Z,1009.71
2022-08-18T09:18:51.843Z,1009.70
2022-08-18T09:19:51.820Z,1009.67
2022-08-18T09:20:51.811Z,1009.75
2022-08-18T09:21:51.825Z,1009.73
2022-08-18T09:22:51.973Z,1009.71
2022-08-18T09:23:51.818Z,1009.71
2022-08-18T09:24:51.809Z,1009.66
2022-08-18T09:25:51.804Z,1009.69
2022-08-18T09:26:51.763Z,1009.66
2022-08-18T09:28:10.606Z,1009.71
2022-08-18T09:28:52.834Z,1009.69
2022-08-18T09:29:51.726Z,1009.73
2022-08-18T09:30:51.718Z,1009.66
2022-08-18T09:31:51.668Z,1009.68
2022-08-18T09:32:51.962Z,1009.68
2022-08-18T09:33:51.638Z,1009.70
2022-08-18T09:34:51.748Z,1009.76
2022-08-18T09:35:51.984Z,1009.76
2022-08-18T09:36:51.629Z,1009.75
2022-08-18T09:37:51.608Z,1009.78
2022-08-18T09:38:51.601Z,1009.76
2022-08-18T09:39:54.335Z,1009.77
2022-08-18T09:41:02.804Z,1009.79
2022-08-18T09:41:52.574Z,1009.73
2022-08-18T09:42:51.556Z,1009.75
2022-08-18T09:43:51.527Z,1009.70
2022-08-18T09:44:51.515Z,1009.74
2022-08-18T09:45:51.546Z,1009.73
2022-08-18T09:46:51.642Z,1009.73
2022-08-18T09:47:51.508Z,1009.73
2022-08-18T09:48:51.464Z,1009.66
2022-08-18T09:49:53.133Z,1009.69
2022-08-18T09:50:51.435Z,1009.74
2022-08-18T09:51:51.449Z,1009.70
2022-08-18T09:52:51.670Z,1009.82
2022-08-18T09:53:51.407Z,1009.76
2022-08-18T09:54:51.381Z,1009.75
2022-08-18T09:55:51.952Z,1009.75
2022-08-18T09:56:53.791Z,1009.84
2022-08-18T09:57:51.380Z,1009.78
2022-08-18T09:58:51.447Z,1009.86
2022-08-18T09:59:51.329Z,1009.84
2022-08-18T10:00:51.299Z,1009.91
2022-08-18T10:01:52.568Z,1009.90
2022-08-18T10:02:51.552Z,1009.94
2022-08-18T10:03:51.273Z,1009.96
2022-08-18T10:04:51.401Z,1009.91
2022-08-18T10:05:51.233Z,1009.96
2022-08-18T10:07:52.236Z,1009.86
2022-08-18T10:08:51.311Z,1009.89
2022-08-18T10:09:51.194Z,1009.86
2022-08-18T10:11:00.599Z,1009.86
2022-08-18T10:11:52.259Z,1009.87
2022-08-18T10:12:51.355Z,1009.88
2022-08-18T10:13:51.147Z,1009.95
2022-08-18T10:14:51.132Z,1009.96
2022-08-18T10:15:51.136Z,1009.91
2022-08-18T10:17:52.100Z,1009.84
2022-08-18T10:18:51.109Z,1009.82
2022-08-18T10:19:51.904Z,1009.73
2022-08-18T10:20:51.079Z,1009.65
2022-08-18T10:22:52.322Z,1009.65
2022-08-18T10:24:02.887Z,1009.57
2022-08-18T10:24:52.012Z,1009.61
2022-08-18T10:25:50.993Z,1009.61
2022-08-18T10:26:54.912Z,1009.61
2022-08-18T10:27:50.973Z,1009.60
2022-08-18T10:28:51.975Z,1009.60
2022-08-18T10:29:50.957Z,1009.55
2022-08-18T10:30:57.240Z,1009.52
2022-08-18T10:31:54.182Z,1009.59
2022-08-18T10:33:51.934Z,1009.56
2022-08-18T10:34:52.151Z,1009.60
2022-08-18T10:35:50.869Z,1009.65
2022-08-18T10:36:50.860Z,1009.59
2022-08-18T10:37:50.916Z,1009.63
2022-08-18T10:38:50.839Z,1009.60
2022-08-18T10:39:50.918Z,1009.59
2022-08-18T10:40:50.826Z,1009.57
2022-08-18T10:41:52.493Z,1009.55
2022-08-18T10:42:53.360Z,1009.52
2022-08-18T10:43:55.619Z,1009.53
2022-08-18T10:44:51.812Z,1009.50
2022-08-18T10:46:23.096Z,1009.46
2022-08-18T10:46:51.750Z,1009.54
2022-08-18T10:47:50.767Z,1009.54
2022-08-18T10:48:50.711Z,1009.59
2022-08-18T10:49:50.684Z,1009.60
2022-08-18T10:50:50.819Z,1009.57
2022-08-18T10:53:24.312Z,1009.62
2022-08-18T10:53:51.688Z,1009.65
2022-08-18T10:54:52.148Z,1009.63
2022-08-18T10:55:51.703Z,1009.65
2022-08-18T10:56:50.789Z,1009.71
2022-08-18T10:57:50.632Z,1009.73
2022-08-18T10:58:50.591Z,1009.81
2022-08-18T10:59:54.497Z,1009.80
2022-08-18T11:00:50.561Z,1009.78
2022-08-18T11:01:50.553Z,1009.77
2022-08-18T11:02:50.825Z,1009.74
2022-08-18T11:04:59.126Z,1009.76
2022-08-18T11:05:51.512Z,1009.68
2022-08-18T11:06:50.507Z,1009.68
2022-08-18T11:07:51.473Z,1009.69
2022-08-18T11:08:55.144Z,1009.68
2022-08-18T11:10:04.535Z,1009.70
2022-08-18T11:11:32.851Z,1009.69
2022-08-18T11:11:52.751Z,1009.73
2022-08-18T11:12:50.428Z,1009.73
2022-08-18T11:13:50.477Z,1009.73
2022-08-18T11:14:50.412Z,1009.70
2022-08-18T11:15:50.541Z,1009.67
2022-08-18T11:16:50.358Z,1009.67
2022-08-18T11:17:50.350Z,1009.59
2022-08-18T11:18:52.915Z,1009.60
2022-08-18T11:19:50.793Z,1009.61
2022-08-18T11:20:50.390Z,1009.59
2022-08-18T11:21:51.338Z,1009.64
2022-08-18T11:22:50.547Z,1009.64
2022-08-18T11:23:50.271Z,1009.60
2022-08-18T11:24:50.274Z,1009.58
2022-08-18T11:25:50.258Z,1009.57
2022-08-18T11:26:52.795Z,1009.58
2022-08-18T11:27:50.528Z,1009.55
2022-08-18T11:28:50.214Z,1009.51
2022-08-18T11:29:50.194Z,1009.51
2022-08-18T11:30:50.212Z,1009.51
2022-08-18T11:31:52.538Z,1009.49
2022-08-18T11:32:52.221Z,1009.49
2022-08-18T11:33:51.455Z,1009.50
2022-08-18T11:34:53.078Z,1009.53
2022-08-18T11:35:50.118Z,1009.48
2022-08-18T11:36:50.292Z,1009.49
2022-08-18T11:37:53.284Z,1009.49
2022-08-18T11:38:50.222Z,1009.53
2022-08-18T11:39:50.179Z,1009.53
2022-08-18T11:41:10.476Z,1009.56
2022-08-18T11:41:51.081Z,1009.54
2022-08-18T11:42:50.200Z,1009.52
2022-08-18T11:43:50.771Z,1009.54
2022-08-18T11:44:50.069Z,1009.49
2022-08-18T11:45:50.005Z,1009.49
2022-08-18T11:46:52.145Z,1009.48
2022-08-18T11:47:49.974Z,1009.49
2022-08-18T11:49:51.194Z,1009.48
2022-08-18T11:50:54.423Z,1009.49
2022-08-18T11:51:50.956Z,1009.45
2022-08-18T11:52:49.924Z,1009.49
2022-08-18T11:53:55.573Z,1009.40
2022-08-18T11:54:54.452Z,1009.38
2022-08-18T11:55:53.336Z,1009.36
2022-08-18T11:56:49.862Z,1009.34
2022-08-18T11:57:49.865Z,1009.38
2022-08-18T11:58:50.491Z,1009.35
2022-08-18T11:59:54.813Z,1009.43
2022-08-18T12:00:50.850Z,1009.44
2022-08-18T12:01:51.282Z,1009.43
2022-08-18T12:02:49.852Z,1009.42
2022-08-18T12:03:49.793Z,1009.42
2022-08-18T12:04:50.414Z,1009.38
2022-08-18T12:05:54.114Z,1009.41
2022-08-18T12:06:50.775Z,1009.34
2022-08-18T12:07:58.035Z,1009.34
2022-08-18T12:08:57.415Z,1009.33
2022-08-18T12:10:51.071Z,1009.30
2022-08-18T12:11:49.685Z,1009.30
2022-08-18T12:12:50.137Z,1009.31
2022-08-18T12:13:49.664Z,1009.30